createdAt,value
2023-10-28T00:02:26.974Z,21.55
2023-10-28T00:07:29.825Z,21.47
2023-10-28T00:12:32.627Z,21.36
2023-10-28T00:17:37.756Z,21.29
2023-10-28T00:22:41.194Z,21.21
2023-10-28T00:27:44.243Z,21.15
2023-10-28T00:32:48.448Z,21.11
2023-10-28T00:37:51.454Z,21.07
2023-10-28T00:42:54.295Z,21.04
2023-10-28T00:47:58.883Z,20.99
2023-10-28T00:53:03.262Z,20.93
2023-10-28T00:58:07.418Z,20.89
2023-10-28T01:03:11.703Z,20.85
2023-10-28T01:08:14.683Z,20.80
2023-10-28T01:13:17.563Z,20.75
2023-10-28T01:18:21.889Z,20.70
2023-10-28T01:23:26.250Z,20.67
2023-10-28T01:28:29.061Z,20.62
2023-10-28T01:33:32.058Z,20.57
2023-10-28T01:38:37.545Z,20.52
2023-10-28T01:43:41.230Z,20.47
2023-10-28T01:48:44.375Z,20.41
2023-10-28T01:53:48.641Z,20.39
2023-10-28T01:58:51.578Z,20.38
2023-10-28T02:03:55.984Z,20.33
2023-10-28T02:09:00.162Z,20.30
2023-10-28T02:14:03.512Z,20.29
2023-10-28T02:19:06.502Z,20.27
2023-10-28T02:24:11.040Z,20.21
2023-10-28T02:29:13.973Z,20.21
2023-10-28T02:34:16.974Z,20.17
2023-10-28T02:39:21.130Z,20.14
2023-10-28T02:44:23.973Z,20.14
2023-10-28T02:49:26.837Z,20.09
2023-10-28T02:54:31.229Z,20.07
2023-10-28T02:59:34.178Z,20.04
2023-10-28T03:04:37.013Z,20.01
2023-10-28T03:09:41.632Z,20.00
2023-10-28T03:14:44.609Z,19.97
2023-10-28T03:19:47.654Z,19.90
2023-10-28T03:24:52.112Z,19.92
2023-10-28T03:29:54.957Z,19.91
2023-10-28T03:34:57.868Z,19.87
2023-10-28T03:40:02.196Z,19.85
2023-10-28T03:45:05.405Z,19.84
2023-10-28T03:50:08.774Z,19.81
2023-10-28T03:55:13.419Z,19.80
2023-10-28T04:00:17.632Z,19.77
2023-10-28T04:05:20.544Z,19.76
2023-10-28T04:10:25.414Z,19.74
2023-10-28T04:15:28.297Z,19.73
2023-10-28T04:20:31.204Z,19.71
2023-10-28T04:25:35.565Z,19.69
2023-10-28T04:30:38.433Z,19.68
2023-10-28T04:35:44.279Z,19.67
2023-10-28T04:40:48.506Z,19.65
2023-10-28T04:45:52.465Z,19.64
2023-10-28T04:50:55.593Z,19.64
2023-10-28T04:55:59.812Z,19.62
2023-10-28T05:01:02.907Z,19.60
2023-10-28T05:06:06.361Z,19.59
2023-10-28T05:11:14.633Z,19.59
2023-10-28T05:16:17.973Z,19.57
2023-10-28T05:21:20.895Z,19.56
2023-10-28T05:26:25.450Z,19.56
2023-10-28T05:31:28.464Z,19.56
2023-10-28T05:36:31.374Z,19.55
2023-10-28T05:41:35.827Z,19.55
2023-10-28T05:46:38.808Z,19.53
2023-10-28T05:51:42.950Z,19.52
2023-10-28T05:56:47.120Z,19.53
2023-10-28T06:01:50.498Z,19.51
2023-10-28T06:06:53.569Z,19.50
2023-10-28T06:11:58.196Z,19.50
2023-10-28T06:17:01.154Z,19.47
2023-10-28T06:22:04.469Z,19.46
2023-10-28T06:27:09.735Z,19.45
2023-10-28T06:32:12.807Z,19.44
2023-10-28T06:37:15.884Z,19.41
2023-10-28T06:42:20.391Z,19.39
2023-10-28T06:47:23.444Z,19.42
2023-10-28T06:52:26.848Z,19.41
2023-10-28T06:57:31.691Z,19.42
2023-10-28T07:02:34.854Z,19.43
2023-10-28T07:07:37.991Z,18.42
2023-10-28T07:12:42.329Z,17.76
2023-10-28T07:17:45.633Z,17.40
2023-10-28T07:22:48.686Z,18.38
2023-10-28T07:27:53.333Z,18.79
2023-10-28T07:32:57.434Z,18.99
2023-10-28T07:38:02.033Z,19.12
2023-10-28T07:43:06.577Z,19.18
2023-10-28T07:48:10.252Z,19.24
2023-10-28T07:53:14.118Z,19.33
2023-10-28T07:58:18.612Z,19.43
2023-10-28T08:03:21.710Z,19.48
2023-10-28T08:08:24.811Z,19.51
2023-10-28T08:13:29.267Z,19.55
2023-10-28T08:18:33.966Z,19.58
2023-10-28T08:23:40.018Z,19.62
2023-10-28T08:28:44.477Z,19.65
2023-10-28T08:33:51.374Z,19.68
2023-10-28T08:38:54.672Z,19.67
2023-10-28T08:43:59.108Z,19.69
2023-10-28T08:49:02.175Z,19.69
2023-10-28T08:54:05.956Z,19.73
2023-10-28T08:59:10.305Z,19.76
2023-10-28T09:04:13.076Z,19.77
2023-10-28T09:09:18.989Z,19.82
2023-10-28T09:14:23.225Z,19.88
2023-10-28T09:19:26.158Z,19.94
2023-10-28T09:24:29.171Z,19.98
2023-10-28T09:29:34.925Z,20.03
2023-10-28T09:34:39.195Z,20.09
2023-10-28T09:39:47.706Z,20.16
2023-10-28T09:44:53.278Z,20.19
2023-10-28T09:49:58.597Z,20.24
2023-10-28T09:55:07.195Z,20.27
2023-10-28T10:00:18.986Z,20.31
2023-10-28T10:05:25.488Z,20.34
2023-10-28T10:10:28.618Z,20.32
2023-10-28T10:15:34.405Z,20.34
2023-10-28T10:20:38.032Z,20.36
2023-10-28T10:25:44.915Z,20.42
2023-10-28T10:30:49.096Z,20.41
2023-10-28T10:35:51.943Z,20.48
2023-10-28T10:40:56.803Z,20.49
2023-10-28T10:46:01.224Z,20.55
2023-10-28T10:51:04.492Z,20.68
2023-10-28T10:56:08.159Z,20.69
2023-10-28T11:01:13.821Z,20.81
2023-10-28T11:06:16.679Z,20.86
2023-10-28T11:11:20.199Z,21.01
2023-10-28T11:16:25.516Z,20.98
2023-10-28T11:21:29.871Z,21.09
2023-10-28T11:26:33.133Z,21.14
2023-10-28T11:31:41.087Z,21.03
2023-10-28T11:36:44.021Z,20.87
2023-10-28T11:41:48.539Z,20.82
2023-10-28T11:46:53.248Z,20.86
2023-10-28T11:51:56.185Z,21.14
2023-10-28T11:56:58.958Z,21.09
2023-10-28T12:02:03.471Z,21.20
2023-10-28T12:07:06.728Z,21.68
2023-10-28T12:12:10.416Z,21.36
2023-10-28T12:17:14.720Z,21.25
2023-10-28T12:22:17.934Z,21.19
2023-10-28T12:27:21.215Z,21.32
2023-10-28T12:32:25.932Z,21.31
2023-10-28T12:37:28.911Z,21.34
2023-10-28T12:42:32.586Z,21.43
2023-10-28T12:47:37.238Z,21.30
2023-10-28T12:52:40.422Z,21.23
2023-10-28T12:57:43.284Z,21.12
2023-10-28T13:02:49.716Z,21.03
2023-10-28T13:07:53.223Z,21.00
2023-10-28T13:12:56.295Z,20.95
2023-10-28T13:18:00.699Z,21.04
2023-10-28T13:23:03.666Z,21.03
2023-10-28T13:28:06.940Z,20.91
2023-10-28T13:33:13.792Z,20.83
2023-10-28T13:38:17.697Z,20.79
2023-10-28T13:43:20.671Z,20.75
2023-10-28T13:48:26.540Z,20.72
2023-10-28T13:53:29.694Z,20.69
2023-10-28T13:58:32.591Z,20.68
2023-10-28T14:03:36.929Z,20.68
2023-10-28T14:08:40.316Z,20.70
2023-10-28T14:13:43.177Z,20.75
2023-10-28T14:18:50.453Z,19.00
2023-10-28T14:23:53.569Z,18.54
2023-10-28T14:28:56.730Z,18.08
2023-10-28T14:34:01.278Z,17.95
2023-10-28T14:39:05.169Z,17.31
2023-10-28T14:44:10.018Z,17.37
2023-10-28T14:49:14.511Z,17.62
2023-10-28T14:54:17.451Z,17.88
2023-10-28T14:59:20.374Z,17.89
2023-10-28T15:04:24.825Z,17.76
2023-10-28T15:09:27.923Z,17.65
2023-10-28T15:14:30.982Z,17.79
2023-10-28T15:19:35.364Z,17.67
2023-10-28T15:24:38.287Z,17.41
2023-10-28T15:29:41.782Z,17.36
2023-10-28T15:34:48.809Z,17.07
2023-10-28T15:39:51.802Z,18.54
2023-10-28T15:44:55.255Z,18.94
2023-10-28T15:49:59.505Z,19.20
2023-10-28T15:55:03.286Z,19.36
2023-10-28T16:00:10.232Z,19.52
2023-10-28T16:05:14.453Z,19.67
2023-10-28T16:10:17.355Z,19.80
2023-10-28T16:15:21.509Z,19.94
2023-10-28T16:20:26.775Z,20.13
2023-10-28T16:25:30.126Z,20.24
2023-10-28T16:30:33.543Z,20.33
2023-10-28T16:35:37.816Z,20.41
2023-10-28T16:40:42.318Z,20.48
2023-10-28T16:45:45.143Z,20.58
2023-10-28T16:50:49.396Z,20.66
2023-10-28T16:56:01.148Z,20.73
2023-10-28T17:01:04.882Z,20.79
2023-10-28T17:06:09.514Z,20.86
2023-10-28T17:11:12.418Z,20.93
2023-10-28T17:16:15.747Z,20.95
2023-10-28T17:21:20.575Z,21.03
2023-10-28T17:26:23.950Z,21.06
2023-10-28T17:31:28.317Z,21.10
2023-10-28T17:36:32.901Z,21.15
2023-10-28T17:41:35.946Z,21.19
2023-10-28T17:46:38.882Z,21.22
2023-10-28T17:51:43.127Z,21.26
2023-10-28T17:56:46.283Z,21.28
2023-10-28T18:01:49.439Z,21.33
2023-10-28T18:06:54.388Z,21.36
2023-10-28T18:11:57.250Z,21.41
2023-10-28T18:17:00.359Z,21.43
2023-10-28T18:22:04.648Z,21.45
2023-10-28T18:27:07.589Z,21.48
2023-10-28T18:32:13.353Z,21.52
2023-10-28T18:37:17.623Z,21.53
2023-10-28T18:42:21.544Z,21.57
2023-10-28T18:47:26.855Z,21.58
2023-10-28T18:52:32.266Z,21.59
2023-10-28T18:57:35.086Z,21.62
2023-10-28T19:02:38.885Z,21.63
2023-10-28T19:07:43.325Z,21.64
2023-10-28T19:12:46.995Z,21.65
2023-10-28T19:17:49.854Z,21.68
2023-10-28T19:22:54.543Z,21.69
2023-10-28T19:27:57.395Z,21.65
2023-10-28T19:33:01.078Z,21.73
2023-10-28T19:38:05.868Z,21.75
2023-10-28T19:43:08.703Z,21.78
2023-10-28T19:48:11.586Z,21.80
2023-10-28T19:53:15.966Z,21.82
2023-10-28T19:58:19.367Z,21.84
2023-10-28T20:03:22.324Z,21.83
2023-10-28T20:08:26.915Z,21.84
2023-10-28T20:13:29.826Z,21.85
2023-10-28T20:18:32.757Z,21.87
2023-10-28T20:23:37.201Z,21.90
2023-10-28T20:28:41.917Z,21.89
2023-10-28T20:33:45.093Z,21.90
2023-10-28T20:38:49.513Z,21.91
2023-10-28T20:43:52.631Z,21.93
2023-10-28T20:48:56.544Z,21.92
2023-10-28T20:54:00.922Z,21.93
2023-10-28T20:59:03.966Z,21.95
2023-10-28T21:04:07.139Z,21.94
2023-10-28T21:09:11.821Z,21.96
2023-10-28T21:14:14.819Z,21.98
2023-10-28T21:19:17.737Z,21.99
2023-10-28T21:24:22.228Z,22.00
2023-10-28T21:29:26.756Z,21.97
2023-10-28T21:34:29.709Z,22.02
2023-10-28T21:39:35.031Z,22.01
2023-10-28T21:44:37.824Z,22.02
2023-10-28T21:49:40.721Z,22.02
2023-10-28T21:54:45.130Z,22.04
2023-10-28T21:59:48.049Z,22.05
2023-10-28T22:04:51.214Z,22.05
2023-10-28T22:09:57.081Z,22.05
2023-10-28T22:15:00.055Z,22.03
2023-10-28T22:20:03.134Z,22.06
2023-10-28T22:25:08.264Z,22.08
2023-10-28T22:30:12.454Z,22.07
2023-10-28T22:35:15.343Z,22.05
2023-10-28T22:40:19.780Z,21.93
2023-10-28T22:45:25.666Z,21.83
2023-10-28T22:50:29.485Z,21.74
2023-10-28T22:55:33.774Z,21.64
2023-10-28T23:00:36.700Z,21.59
2023-10-28T23:05:40.314Z,21.54
2023-10-28T23:10:44.794Z,21.48
2023-10-28T23:15:48.425Z,21.43
2023-10-28T23:20:52.060Z,21.37
2023-10-28T23:25:56.339Z,21.32
2023-10-28T23:30:59.154Z,21.27
2023-10-28T23:36:02.142Z,21.22
2023-10-28T23:41:06.422Z,21.18
2023-10-28T23:46:09.971Z,21.15
2023-10-28T23:51:12.806Z,21.09
2023-10-28T23:56:16.994Z,21.04
